sensor_id;sensor_type;location;lat;lon;timestamp;pressure;altitude;pressure_sealevel;temperature;humidity
62980;BME280;49075;53.988;27.678;2023-02-28T00:01:20;999.1;;;-6;69.6
62980;BME280;49075;53.988;27.678;2023-02-28T00:07:11;999;;;-6;69.6
62980;BME280;49075;53.988;27.678;2023-02-28T00:11:19;999;;;-6;69.7
62980;BME280;49075;53.988;27.678;2023-02-28T00:17:01;999;;;-6;69.7
62980;BME280;49075;53.988;27.678;2023-02-28T00:21:39;998.9;;;-6;69.7
62980;BME280;49075;53.988;27.678;2023-02-28T00:26:47;998.8;;;-6;69.9
62980;BME280;49075;53.988;27.678;2023-02-28T00:32:09;998.8;;;-6.1;69.9
62980;BME280;49075;53.988;27.678;2023-02-28T00:36:33;998.8;;;-6.1;70
62980;BME280;49075;53.988;27.678;2023-02-28T00:41:47;998.8;;;-6.2;70
62980;BME280;49075;53.988;27.678;2023-02-28T00:47:00;998.9;;;-6.1;69.9
62980;BME280;49075;53.988;27.678;2023-02-28T00:52:11;998.8;;;-6.2;70.1
62980;BME280;49075;53.988;27.678;2023-02-28T00:56:41;998.8;;;-6.2;69.8
62980;BME280;49075;53.988;27.678;2023-02-28T01:02:09;999;;;-6.3;70.1
62980;BME280;49075;53.988;27.678;2023-02-28T01:06:33;999;;;-6.2;69.8
62980;BME280;49075;53.988;27.678;2023-02-28T01:11:33;998.9;;;-6.3;70.2
62980;BME280;49075;53.988;27.678;2023-02-28T01:17:09;998.9;;;-6.4;70
62980;BME280;49075;53.988;27.678;2023-02-28T01:21:41;998.9;;;-6.5;70.3
62980;BME280;49075;53.988;27.678;2023-02-28T01:27:09;998.8;;;-6.6;70.3
62980;BME280;49075;53.988;27.678;2023-02-28T01:31:51;998.7;;;-6.7;70.5
62980;BME280;49075;53.988;27.678;2023-02-28T01:36:31;998.7;;;-6.9;70.5
62980;BME280;49075;53.988;27.678;2023-02-28T01:42:08;998.7;;;-7.3;72
62980;BME280;49075;53.988;27.678;2023-02-28T01:46:57;998.6;;;-7.4;71.6
62980;BME280;49075;53.988;27.678;2023-02-28T01:52:11;998.7;;;-7.6;72.1
62980;BME280;49075;53.988;27.678;2023-02-28T01:56:54;998.8;;;-7.7;72.2
62980;BME280;49075;53.988;27.678;2023-02-28T02:01:31;998.8;;;-7.8;72.1
62980;BME280;49075;53.988;27.678;2023-02-28T02:07:11;998.8;;;-7.9;72.1
62980;BME280;49075;53.988;27.678;2023-02-28T02:11:20;998.8;;;-8;72.9
62980;BME280;49075;53.988;27.678;2023-02-28T02:17:13;998.8;;;-8.1;72.7
62980;BME280;49075;53.988;27.678;2023-02-28T02:22:01;998.9;;;-8.2;73
62980;BME280;49075;53.988;27.678;2023-02-28T02:26:31;999;;;-8.2;72.9
62980;BME280;49075;53.988;27.678;2023-02-28T02:32:19;999;;;-8.3;73.3
62980;BME280;49075;53.988;27.678;2023-02-28T02:36:59;999;;;-8.3;73.4
62980;BME280;49075;53.988;27.678;2023-02-28T02:42:11;998.9;;;-8.4;73.6
62980;BME280;49075;53.988;27.678;2023-02-28T02:46:58;998.9;;;-8.4;73.8
62980;BME280;49075;53.988;27.678;2023-02-28T02:52:02;998.9;;;-8.5;73.4
62980;BME280;49075;53.988;27.678;2023-02-28T02:57:10;998.8;;;-8.6;74.4
62980;BME280;49075;53.988;27.678;2023-02-28T03:01:39;998.8;;;-8.7;74.1
62980;BME280;49075;53.988;27.678;2023-02-28T03:06:47;998.7;;;-8.8;75.2
62980;BME280;49075;53.988;27.678;2023-02-28T03:11:54;998.7;;;-8.7;74.1
62980;BME280;49075;53.988;27.678;2023-02-28T03:16:33;998.7;;;-8.8;75.1
62980;BME280;49075;53.988;27.678;2023-02-28T03:22:14;998.7;;;-8.8;74.3
62980;BME280;49075;53.988;27.678;2023-02-28T03:26:42;998.7;;;-8.9;74.7
62980;BME280;49075;53.988;27.678;2023-02-28T03:32:11;998.6;;;-8.9;74.4
62980;BME280;49075;53.988;27.678;2023-02-28T03:36:52;998.6;;;-9;75
62980;BME280;49075;53.988;27.678;2023-02-28T03:41:35;998.6;;;-8.9;74.2
62980;BME280;49075;53.988;27.678;2023-02-28T03:47:10;998.6;;;-9;74.6
62980;BME280;49075;53.988;27.678;2023-02-28T03:51:39;998.5;;;-9.1;74.6
62980;BME280;49075;53.988;27.678;2023-02-28T03:57:10;998.5;;;-9.2;75.8
62980;BME280;49075;53.988;27.678;2023-02-28T04:01:53;998.4;;;-9.2;75.3
62980;BME280;49075;53.988;27.678;2023-02-28T04:06:49;998.4;;;-9.3;76.3
62980;BME280;49075;53.988;27.678;2023-02-28T04:12:11;998.3;;;-9.3;75.4
62980;BME280;49075;53.988;27.678;2023-02-28T04:16:19;998.4;;;-9.2;75.8
62980;BME280;49075;53.988;27.678;2023-02-28T04:22:11;998.4;;;-9.2;75.2
62980;BME280;49075;53.988;27.678;2023-02-28T04:26:40;998.4;;;-9.4;76.3
62980;BME280;49075;53.988;27.678;2023-02-28T04:31:33;998.4;;;-9.4;76.1
62980;BME280;49075;53.988;27.678;2023-02-28T04:37:09;998.4;;;-9.4;76
62980;BME280;49075;53.988;27.678;2023-02-28T04:41:41;998.4;;;-9.5;76.3
62980;BME280;49075;53.988;27.678;2023-02-28T04:47:09;998.4;;;-9.4;75.9
62980;BME280;49075;53.988;27.678;2023-02-28T04:51:45;998.4;;;-9.5;75.7
62980;BME280;49075;53.988;27.678;2023-02-28T04:56:29;998.4;;;-9.4;75.2
62980;BME280;49075;53.988;27.678;2023-02-28T05:02:07;998.4;;;-9.4;75.2
62980;BME280;49075;53.988;27.678;2023-02-28T05:06:37;998.5;;;-9.3;74.7
62980;BME280;49075;53.988;27.678;2023-02-28T05:12:09;998.5;;;-9.3;74.7
62980;BME280;49075;53.988;27.678;2023-02-28T05:16:53;998.5;;;-9.2;74.3
62980;BME280;49075;53.988;27.678;2023-02-28T05:21:59;998.4;;;-9;74.7
62980;BME280;49075;53.988;27.678;2023-02-28T05:26:53;998.4;;;-9;74.1
62980;BME280;49075;53.988;27.678;2023-02-28T05:31:39;998.3;;;-9.1;74.2
62980;BME280;49075;53.988;27.678;2023-02-28T05:37:10;998.2;;;-9;73.9
62980;BME280;49075;53.988;27.678;2023-02-28T05:41:51;998.3;;;-8.7;74.5
62980;BME280;49075;53.988;27.678;2023-02-28T05:46:19;998.2;;;-7.4;73
62980;BME280;49075;53.988;27.678;2023-02-28T05:51:39;998.1;;;-6.1;70.2
62980;BME280;49075;53.988;27.678;2023-02-28T05:56:55;998;;;-4.5;68.3
62980;BME280;49075;53.988;27.678;2023-02-28T06:02:08;997.9;;;-3.6;64.6
62980;BME280;49075;53.988;27.678;2023-02-28T06:06:51;997.9;;;-2.9;63.6
62980;BME280;49075;53.988;27.678;2023-02-28T06:11:29;997.8;;;-2;60.9
62980;BME280;49075;53.988;27.678;2023-02-28T06:16:51;997.8;;;-1;59.6
62980;BME280;49075;53.988;27.678;2023-02-28T06:21:56;997.7;;;-0.4;57.8
62980;BME280;49075;53.988;27.678;2023-02-28T06:27:09;997.7;;;-0.1;56.4
62980;BME280;49075;53.988;27.678;2023-02-28T06:31:51;997.6;;;0.6;55.4
62980;BME280;49075;53.988;27.678;2023-02-28T06:36:43;997.6;;;1.3;53.4
62980;BME280;49075;53.988;27.678;2023-02-28T06:41:53;997.6;;;2;54.4
62980;BME280;49075;53.988;27.678;2023-02-28T06:46:27;997.6;;;2.5;50.4
62980;BME280;49075;53.988;27.678;2023-02-28T06:51:55;997.4;;;3.5;51.8
62980;BME280;49075;53.988;27.678;2023-02-28T06:56:51;997.4;;;3.6;48.1
62980;BME280;49075;53.988;27.678;2023-02-28T07:01:19;997.5;;;4.1;50.4
62980;BME280;49075;53.988;27.678;2023-02-28T07:06:51;997.5;;;5.2;47.3
62980;BME280;49075;53.988;27.678;2023-02-28T07:11:39;997.6;;;5.8;47.9
62980;BME280;49075;53.988;27.678;2023-02-28T07:17:10;997.5;;;6.6;45.1
62980;BME280;49075;53.988;27.678;2023-02-28T07:21:53;997.5;;;7.2;45.3
62980;BME280;49075;53.988;27.678;2023-02-28T07:26:45;997.5;;;7.6;43.3
62980;BME280;49075;53.988;27.678;2023-02-28T07:31:53;997.4;;;8;43.3
62980;BME280;49075;53.988;27.678;2023-02-28T07:36:28;997.3;;;8.1;41
62980;BME280;49075;53.988;27.678;2023-02-28T07:42:09;997.4;;;8.8;42.2
62980;BME280;49075;53.988;27.678;2023-02-28T07:46:43;997.3;;;9.5;41.6
62980;BME280;49075;53.988;27.678;2023-02-28T07:51:19;997.3;;;9.8;38.6
62980;BME280;49075;53.988;27.678;2023-02-28T07:56:51;997.3;;;10.3;39.4
62980;BME280;49075;53.988;27.678;2023-02-28T08:01:35;997.2;;;10.5;36.3
62980;BME280;49075;53.988;27.678;2023-02-28T08:07:09;997.2;;;11;37.7
62980;BME280;49075;53.988;27.678;2023-02-28T08:11:51;997.2;;;10.9;35.5
62980;BME280;49075;53.988;27.678;2023-02-28T08:16:29;997.1;;;11.1;36.7
62980;BME280;49075;53.988;27.678;2023-02-28T08:21:51;997.1;;;11.3;34.8
62980;BME280;49075;53.988;27.678;2023-02-28T08:26:39;997.1;;;11.7;35.3
62980;BME280;49075;53.988;27.678;2023-02-28T08:32:07;997.1;;;11.9;33.3
62980;BME280;49075;53.988;27.678;2023-02-28T08:36:51;997.1;;;12.1;34.2
62980;BME280;49075;53.988;27.678;2023-02-28T08:41:19;997;;;12.4;32.8
62980;BME280;49075;53.988;27.678;2023-02-28T08:46:37;997.1;;;13;32.8
62980;BME280;49075;53.988;27.678;2023-02-28T08:51:19;997.1;;;13.2;31.4
62980;BME280;49075;53.988;27.678;2023-02-28T08:57:07;997.1;;;12.5;31.5
62980;BME280;49075;53.988;27.678;2023-02-28T09:01:28;997.1;;;12.7;30.9
62980;BME280;49075;53.988;27.678;2023-02-28T09:06:20;997.1;;;12.5;30.2
62980;BME280;49075;53.988;27.678;2023-02-28T09:11:51;997;;;12.9;30.8
62980;BME280;49075;53.988;27.678;2023-02-28T09:16:29;996.9;;;12.6;29.3
62980;BME280;49075;53.988;27.678;2023-02-28T09:22:07;996.7;;;12.9;30.3
62980;BME280;49075;53.988;27.678;2023-02-28T09:26:20;996.7;;;13;28.8
62980;BME280;49075;53.988;27.678;2023-02-28T09:31:20;996.6;;;13.4;29.7
62980;BME280;49075;53.988;27.678;2023-02-28T09:36:51;996.6;;;14.3;28
62980;BME280;49075;53.988;27.678;2023-02-28T09:41:20;996.6;;;14.8;27.9
62980;BME280;49075;53.988;27.678;2023-02-28T09:47:08;996.7;;;15;26.7
62980;BME280;49075;53.988;27.678;2023-02-28T09:51:40;996.6;;;15.4;26.7
62980;BME280;49075;53.988;27.678;2023-02-28T09:56:20;996.7;;;15.3;25.4
62980;BME280;49075;53.988;27.678;2023-02-28T10:01:53;996.7;;;14.8;26.5
62980;BME280;49075;53.988;27.678;2023-02-28T10:06:40;996.7;;;14.6;26.1
62980;BME280;49075;53.988;27.678;2023-02-28T10:12:09;996.7;;;14.6;26.3
62980;BME280;49075;53.988;27.678;2023-02-28T10:16:20;996.6;;;15.3;25.3
62980;BME280;49075;53.988;27.678;2023-02-28T10:21:31;996.6;;;16.1;24.6
62980;BME280;49075;53.988;27.678;2023-02-28T10:26:49;996.4;;;16.1;25.1
62980;BME280;49075;53.988;27.678;2023-02-28T10:31:39;996.2;;;15.6;23.7
62980;BME280;49075;53.988;27.678;2023-02-28T10:37:07;996.1;;;16;24.7
62980;BME280;49075;53.988;27.678;2023-02-28T10:41:42;996.1;;;16.1;23.4
62980;BME280;49075;53.988;27.678;2023-02-28T10:46:19;995.9;;;16.7;23.9
62980;BME280;49075;53.988;27.678;2023-02-28T10:51:52;995.9;;;16.9;22.4
62980;BME280;49075;53.988;27.678;2023-02-28T10:57:05;995.7;;;16.9;22.9
62980;BME280;49075;53.988;27.678;2023-02-28T11:02:29;995.6;;;16.3;22.6
62980;BME280;49075;53.988;27.678;2023-02-28T11:06:37;995.5;;;15.7;23.5
62980;BME280;49075;53.988;27.678;2023-02-28T11:11:30;995.4;;;15.4;22.8
62980;BME280;49075;53.988;27.678;2023-02-28T11:17:12;995.4;;;15.3;23.5
62980;BME280;49075;53.988;27.678;2023-02-28T11:21:29;995.3;;;14.6;23.9
62980;BME280;49075;53.988;27.678;2023-02-28T11:27:05;995.3;;;14.1;23.5
62980;BME280;49075;53.988;27.678;2023-02-28T11:31:39;995.1;;;13.7;24.3
62980;BME280;49075;53.988;27.678;2023-02-28T11:36:21;995;;;14.1;24.2
62980;BME280;49075;53.988;27.678;2023-02-28T11:41:47;994.9;;;15;23.8
62980;BME280;49075;53.988;27.678;2023-02-28T11:46:37;994.9;;;14.9;23.2
62980;BME280;49075;53.988;27.678;2023-02-28T11:52:10;994.9;;;14.8;23.9
62980;BME280;49075;53.988;27.678;2023-02-28T11:56:29;994.9;;;14.3;24
62980;BME280;49075;53.988;27.678;2023-02-28T12:01:37;994.9;;;14;24.9
62980;BME280;49075;53.988;27.678;2023-02-28T12:06:50;994.8;;;12.9;25.8
62980;BME280;49075;53.988;27.678;2023-02-28T12:11:34;994.8;;;12.1;26.3
62980;BME280;49075;53.988;27.678;2023-02-28T12:17:13;994.6;;;10.9;27.5
62980;BME280;49075;53.988;27.678;2023-02-28T12:21:31;994.6;;;9.4;29.1
62980;BME280;49075;53.988;27.678;2023-02-28T12:26:44;994.5;;;8.4;30.4
62980;BME280;49075;53.988;27.678;2023-02-28T12:31:55;994.4;;;7.3;32.2
62980;BME280;49075;53.988;27.678;2023-02-28T12:36:41;994.3;;;6.2;33.7
62980;BME280;49075;53.988;27.678;2023-02-28T12:42:10;994.2;;;5.2;35.6
62980;BME280;49075;53.988;27.678;2023-02-28T12:46:29;994.2;;;4.5;36.6
62980;BME280;49075;53.988;27.678;2023-02-28T12:51:19;994.2;;;3.8;38.8
62980;BME280;49075;53.988;27.678;2023-02-28T12:56:54;994.2;;;3.2;39
62980;BME280;49075;53.988;27.678;2023-02-28T13:06:50;994.2;;;2.8;40.5
62980;BME280;49075;53.988;27.678;2023-02-28T13:11:37;994.1;;;2.7;41.4
62980;BME280;49075;53.988;27.678;2023-02-28T13:16:47;994;;;2.4;42
62980;BME280;49075;53.988;27.678;2023-02-28T13:22:15;993.9;;;2.3;43
62980;BME280;49075;53.988;27.678;2023-02-28T13:26:19;993.9;;;2.4;42.7
62980;BME280;49075;53.988;27.678;2023-02-28T13:36:41;993.7;;;2.1;44.3
62980;BME280;49075;53.988;27.678;2023-02-28T13:41:42;993.7;;;1.9;45.2
62980;BME280;49075;53.988;27.678;2023-02-28T13:47:27;993.7;;;1.9;45.2
62980;BME280;49075;53.988;27.678;2023-02-28T13:51:37;993.7;;;1.9;45.9
62980;BME280;49075;53.988;27.678;2023-02-28T13:56:57;993.6;;;2;45.2
62980;BME280;49075;53.988;27.678;2023-02-28T14:01:46;993.5;;;1.9;46.1
62980;BME280;49075;53.988;27.678;2023-02-28T14:06:23;993.3;;;1.9;46.3
62980;BME280;49075;53.988;27.678;2023-02-28T14:13:36;993.2;;;1.8;46.6
62980;BME280;49075;53.988;27.678;2023-02-28T14:16:36;993;;;1.9;46.8
62980;BME280;49075;53.988;27.678;2023-02-28T14:22:16;993;;;2;46
62980;BME280;49075;53.988;27.678;2023-02-28T14:26:51;993.1;;;1.9;47.2
62980;BME280;49075;53.988;27.678;2023-02-28T14:31:46;993.2;;;1.7;47.2
62980;BME280;49075;53.988;27.678;2023-02-28T14:37:10;993.2;;;1.6;47.8
62980;BME280;49075;53.988;27.678;2023-02-28T14:41:45;993.3;;;1.5;47.4
62980;BME280;49075;53.988;27.678;2023-02-28T14:46:58;993.3;;;1.3;48.6
62980;BME280;49075;53.988;27.678;2023-02-28T14:51:39;993.3;;;1.3;48
62980;BME280;49075;53.988;27.678;2023-02-28T14:56:57;993.3;;;1;49.4
62980;BME280;49075;53.988;27.678;2023-02-28T15:02:15;993.3;;;0.9;49.1
62980;BME280;49075;53.988;27.678;2023-02-28T15:06:31;993.5;;;0.7;50.7
62980;BME280;49075;53.988;27.678;2023-02-28T15:11:59;993.5;;;0.6;49.7
62980;BME280;49075;53.988;27.678;2023-02-28T15:16:28;993.5;;;0.6;50.3
62980;BME280;49075;53.988;27.678;2023-02-28T15:21:34;993.5;;;0.5;50.2
62980;BME280;49075;53.988;27.678;2023-02-28T15:27:11;993.5;;;0.4;51.2
62980;BME280;49075;53.988;27.678;2023-02-28T15:31:34;993.4;;;0.3;51
62980;BME280;49075;53.988;27.678;2023-02-28T15:36:58;993.4;;;0.2;52.1
62980;BME280;49075;53.988;27.678;2023-02-28T15:41:41;993.3;;;0;52.3
62980;BME280;49075;53.988;27.678;2023-02-28T15:46:53;993.3;;;-0.2;53.5
62980;BME280;49075;53.988;27.678;2023-02-28T15:52:10;993.4;;;-0.1;52.9
62980;BME280;49075;53.988;27.678;2023-02-28T15:56:32;993.3;;;-0.1;53.5
62980;BME280;49075;53.988;27.678;2023-02-28T16:02:14;993.4;;;-0.1;52.9
62980;BME280;49075;53.988;27.678;2023-02-28T16:06:24;993.4;;;0;53.5
62980;BME280;49075;53.988;27.678;2023-02-28T16:11:37;993.4;;;-0.1;53.4
62980;BME280;49075;53.988;27.678;2023-02-28T16:17:20;993.5;;;-0.1;53.3
62980;BME280;49075;53.988;27.678;2023-02-28T16:21:47;993.5;;;-0.1;53.6
62980;BME280;49075;53.988;27.678;2023-02-28T16:26:57;993.6;;;-0.1;53.2
62980;BME280;49075;53.988;27.678;2023-02-28T16:31:41;993.6;;;-0.2;54.5
62980;BME280;49075;53.988;27.678;2023-02-28T16:36:31;993.5;;;-0.1;53.6
62980;BME280;49075;53.988;27.678;2023-02-28T16:42:09;993.5;;;-0.2;54.7
62980;BME280;49075;53.988;27.678;2023-02-28T16:46:47;993.5;;;-0.1;53.9
62980;BME280;49075;53.988;27.678;2023-02-28T16:51:57;993.5;;;-0.1;54.6
62980;BME280;49075;53.988;27.678;2023-02-28T16:56:42;993.3;;;-0.2;54.3
62980;BME280;49075;53.988;27.678;2023-02-28T17:01:19;993.2;;;-0.3;55.3
62980;BME280;49075;53.988;27.678;2023-02-28T17:07:10;993.3;;;-0.3;54.7
62980;BME280;49075;53.988;27.678;2023-02-28T17:11:19;993.3;;;-0.3;55.6
62980;BME280;49075;53.988;27.678;2023-02-28T17:17:10;993.3;;;-0.3;55.1
62980;BME280;49075;53.988;27.678;2023-02-28T17:21:57;993.3;;;-0.2;55.8
62980;BME280;49075;53.988;27.678;2023-02-28T17:27:09;993.2;;;-0.2;55.5
62980;BME280;49075;53.988;27.678;2023-02-28T17:31:29;993.2;;;-0.3;56.9
62980;BME280;49075;53.988;27.678;2023-02-28T17:36:44;993.3;;;-0.2;56.5
62980;BME280;49075;53.988;27.678;2023-02-28T17:42:09;993.3;;;-0.2;56.9
62980;BME280;49075;53.988;27.678;2023-02-28T17:46:47;993.2;;;-0.1;56.6
62980;BME280;49075;53.988;27.678;2023-02-28T17:52:09;993.2;;;-0.1;57.3
62980;BME280;49075;53.988;27.678;2023-02-28T17:56:43;993.2;;;0;56.9
62980;BME280;49075;53.988;27.678;2023-02-28T18:01:41;993.1;;;0;57.9
62980;BME280;49075;53.988;27.678;2023-02-28T18:07:08;993.1;;;0.1;57.3
62980;BME280;49075;53.988;27.678;2023-02-28T18:11:55;992.9;;;0.1;57.9
62980;BME280;49075;53.988;27.678;2023-02-28T18:17:09;992.8;;;0;58.6
62980;BME280;49075;53.988;27.678;2023-02-28T18:21:41;992.7;;;0;58.5
62980;BME280;49075;53.988;27.678;2023-02-28T18:26:31;992.5;;;-0.1;59.6
62980;BME280;49075;53.988;27.678;2023-02-28T18:32:07;992.4;;;0;59.1
62980;BME280;49075;53.988;27.678;2023-02-28T18:36:57;992.3;;;-0.2;61
62980;BME280;49075;53.988;27.678;2023-02-28T18:42:09;992.2;;;-0.1;60.2
62980;BME280;49075;53.988;27.678;2023-02-28T18:46:20;992.1;;;-0.2;62.1
62980;BME280;49075;53.988;27.678;2023-02-28T18:51:43;992.1;;;-0.1;61.3
62980;BME280;49075;53.988;27.678;2023-02-28T18:57:07;992;;;-0.1;62.2
62980;BME280;49075;53.988;27.678;2023-02-28T19:01:55;991.9;;;-0.1;61.4
62980;BME280;49075;53.988;27.678;2023-02-28T19:07:09;991.8;;;-0.3;62.5
62980;BME280;49075;53.988;27.678;2023-02-28T19:11:43;991.7;;;-0.2;61
62980;BME280;49075;53.988;27.678;2023-02-28T19:16:20;991.6;;;-0.4;61.8
62980;BME280;49075;53.988;27.678;2023-02-28T19:22:09;991.6;;;-0.5;61.5
62980;BME280;49075;53.988;27.678;2023-02-28T19:26:54;991.5;;;-0.7;62.9
62980;BME280;49075;53.988;27.678;2023-02-28T19:32:07;991.4;;;-0.7;62.4
62980;BME280;49075;53.988;27.678;2023-02-28T19:36:43;991.3;;;-0.8;63.7
62980;BME280;49075;53.988;27.678;2023-02-28T19:41:19;991.2;;;-0.8;63.9
62980;BME280;49075;53.988;27.678;2023-02-28T19:47:09;991.2;;;-1;65.6
62980;BME280;49075;53.988;27.678;2023-02-28T19:51:57;991.1;;;-0.8;65
62980;BME280;49075;53.988;27.678;2023-02-28T19:57:07;991.1;;;-0.9;65.4
62980;BME280;49075;53.988;27.678;2023-02-28T20:01:41;990.9;;;-0.9;67
62980;BME280;49075;53.988;27.678;2023-02-28T20:06:19;991;;;-1;66.8
62980;BME280;49075;53.988;27.678;2023-02-28T20:12:09;990.9;;;-0.9;66.7
62980;BME280;49075;53.988;27.678;2023-02-28T20:16:22;990.9;;;-0.8;66.4
62980;BME280;49075;53.988;27.678;2023-02-28T20:22:07;990.8;;;-0.8;67.2
62980;BME280;49075;53.988;27.678;2023-02-28T20:26:19;990.8;;;-0.8;67.1
62980;BME280;49075;53.988;27.678;2023-02-28T20:31:43;990.7;;;-0.7;67.7
62980;BME280;49075;53.988;27.678;2023-02-28T20:37:09;990.7;;;-0.7;67.4
62980;BME280;49075;53.988;27.678;2023-02-28T20:41:57;990.8;;;-0.6;68.8
62980;BME280;49075;53.988;27.678;2023-02-28T20:47:09;990.8;;;-0.5;67.8
62980;BME280;49075;53.988;27.678;2023-02-28T20:51:43;990.7;;;-0.5;69.5
62980;BME280;49075;53.988;27.678;2023-02-28T20:56:41;990.7;;;-0.4;68.6
62980;BME280;49075;53.988;27.678;2023-02-28T21:02:09;990.7;;;-0.4;70.3
62980;BME280;49075;53.988;27.678;2023-02-28T21:06:57;990.7;;;-0.4;69.7
62980;BME280;49075;53.988;27.678;2023-02-28T21:12:07;990.6;;;-0.3;70
62980;BME280;49075;53.988;27.678;2023-02-28T21:16:29;990.6;;;-0.3;69.3
62980;BME280;49075;53.988;27.678;2023-02-28T21:21:34;990.6;;;-0.3;70.2
62980;BME280;49075;53.988;27.678;2023-02-28T21:26:29;990.6;;;-0.2;69.7
62980;BME280;49075;53.988;27.678;2023-02-28T21:31:57;990.6;;;-0.1;69.3
62980;BME280;49075;53.988;27.678;2023-02-28T21:37:07;990.6;;;-0.1;69.6
62980;BME280;49075;53.988;27.678;2023-02-28T21:41:20;990.6;;;-0.1;69.3
62980;BME280;49075;53.988;27.678;2023-02-28T21:46:41;990.6;;;0;69.5
62980;BME280;49075;53.988;27.678;2023-02-28T21:51:53;990.5;;;0;68.6
62980;BME280;49075;53.988;27.678;2023-02-28T21:56:57;990.6;;;0;70.2
62980;BME280;49075;53.988;27.678;2023-02-28T22:02:07;990.6;;;0;68.9
62980;BME280;49075;53.988;27.678;2023-02-28T22:06:30;990.6;;;0;69.7
62980;BME280;49075;53.988;27.678;2023-02-28T22:11:34;990.6;;;0;69.4
62980;BME280;49075;53.988;27.678;2023-02-28T22:16:41;990.6;;;0;70.1
62980;BME280;49075;53.988;27.678;2023-02-28T22:21:57;990.6;;;-0.1;70
62980;BME280;49075;53.988;27.678;2023-02-28T22:27:07;990.7;;;-0.1;70.5
62980;BME280;49075;53.988;27.678;2023-02-28T22:31:43;990.6;;;0;70.2
62980;BME280;49075;53.988;27.678;2023-02-28T22:36:43;990.6;;;-0.1;70.3
62980;BME280;49075;53.988;27.678;2023-02-28T22:41:41;990.6;;;-0.1;71.6
62980;BME280;49075;53.988;27.678;2023-02-28T22:46:57;990.6;;;-0.1;70.9
62980;BME280;49075;53.988;27.678;2023-02-28T22:52:09;990.5;;;-0.2;71.6
62980;BME280;49075;53.988;27.678;2023-02-28T22:56:41;990.4;;;-0.2;71.7
62980;BME280;49075;53.988;27.678;2023-02-28T23:01:49;990.4;;;-0.3;72.2
62980;BME280;49075;53.988;27.678;2023-02-28T23:06:34;990.3;;;-0.3;72.3
62980;BME280;49075;53.988;27.678;2023-02-28T23:11:57;990.3;;;-0.2;72
62980;BME280;49075;53.988;27.678;2023-02-28T23:17:07;990.3;;;-0.3;72.9
62980;BME280;49075;53.988;27.678;2023-02-28T23:21:51;990.3;;;-0.3;72.2
62980;BME280;49075;53.988;27.678;2023-02-28T23:26:41;990.3;;;-0.4;74
62980;BME280;49075;53.988;27.678;2023-02-28T23:31:37;990.2;;;-0.3;72.5
62980;BME280;49075;53.988;27.678;2023-02-28T23:37:03;990.3;;;-0.4;74.2
62980;BME280;49075;53.988;27.678;2023-02-28T23:42:03;990.2;;;-0.4;73.1
62980;BME280;49075;53.988;27.678;2023-02-28T23:46:39;990.2;;;-0.3;73.9
62980;BME280;49075;53.988;27.678;2023-02-28T23:51:33;990.2;;;-0.2;72.7
62980;BME280;49075;53.988;27.678;2023-02-28T23:56:39;990.1;;;-0.2;73.8
